Time;durP1;ratioP1;P1;durP2;ratioP2;P2;SDS_P1;SDS_P2;PMS_P1;PMS_P2;Temp;Humidity;BMP_temperature;BMP_pressure;BME280_temperature;BME280_humidity;BME280_pressure;Samples;Min_cycle;Max_cycle;Signal;HPM_P1;HPM_P2
2021/03/23 00:01:29;;;;;;;10.17;7.03;;;;;;;;;;5107614;28;20256;-43
2021/03/23 00:03:55;;;;;;;10.30;7.67;;;;;;;;;;5108599;28;20173;-43
2021/03/23 00:06:28;;;;;;;11.17;7.50;;;;;;;;;;5106103;28;20174;-43
2021/03/23 00:08:54;;;;;;;10.77;7.30;;;;;;;;;;5108653;28;20257;-43
2021/03/23 00:11:52;;;;;;;11.30;7.50;;;;;;;;;;5108126;28;20684;-43
2021/03/23 00:14:17;;;;;;;8.53;7.53;;;;;;;;;;5065755;28;20621;-42
2021/03/23 00:16:44;;;;;;;8.47;7.20;;;;;;;;;;5104937;28;20675;-43
2021/03/23 00:19:10;;;;;;;9.13;6.93;;;;;;;;;;5108892;28;20257;-43
2021/03/23 00:21:35;;;;;;;11.17;6.73;;;;;;;;;;5106439;28;20691;-43
2021/03/23 00:24:01;;;;;;;10.50;7.07;;;;;;;;;;5107930;28;20224;-44
2021/03/23 00:26:26;;;;;;;8.37;6.40;;;;;;;;;;5106469;28;20174;-43
2021/03/23 00:28:54;;;;;;;11.03;7.10;;;;;;;;;;5108327;28;20685;-44
2021/03/23 00:31:20;;;;;;;12.67;6.70;;;;;;;;;;5106769;28;20215;-43
2021/03/23 00:33:46;;;;;;;8.23;6.13;;;;;;;;;;5106071;27;20588;-43
2021/03/23 00:36:12;;;;;;;9.60;6.60;;;;;;;;;;5107249;28;20621;-43
2021/03/23 00:38:38;;;;;;;8.93;6.57;;;;;;;;;;5108511;28;20174;-41
2021/03/23 00:41:05;;;;;;;10.63;7.40;;;;;;;;;;5108538;28;20619;-42
2021/03/23 00:43:30;;;;;;;7.53;6.30;;;;;;;;;;5106265;28;20609;-42
2021/03/23 00:45:55;;;;;;;7.10;6.40;;;;;;;;;;5108679;28;20929;-43
2021/03/23 00:48:21;;;;;;;10.57;6.60;;;;;;;;;;5100260;28;20183;-42
2021/03/23 00:50:46;;;;;;;9.57;6.20;;;;;;;;;;5106995;28;20203;-42
2021/03/23 00:53:11;;;;;;;8.00;6.53;;;;;;;;;;5105380;28;20174;-43
2021/03/23 00:55:37;;;;;;;12.40;7.70;;;;;;;;;;5108118;28;20231;-43
2021/03/23 00:58:02;;;;;;;11.30;6.93;;;;;;;;;;5105783;28;20638;-43
2021/03/23 01:00:28;;;;;;;9.25;6.20;;;;;;;;;;5107475;28;20707;-43
2021/03/23 01:02:53;;;;;;;8.43;6.40;;;;;;;;;;5105305;28;20232;-43
2021/03/23 01:05:21;;;;;;;9.53;6.77;;;;;;;;;;5110468;28;20595;-43
2021/03/23 01:07:46;;;;;;;8.23;6.43;;;;;;;;;;5106847;28;20177;-43
2021/03/23 01:10:12;;;;;;;9.80;6.33;;;;;;;;;;5092341;28;20635;-43
2021/03/23 01:12:37;;;;;;;9.93;6.60;;;;;;;;;;5110358;28;20287;-43
2021/03/23 01:15:04;;;;;;;12.30;6.47;;;;;;;;;;5112772;28;20606;-43
2021/03/23 01:17:29;;;;;;;11.70;6.33;;;;;;;;;;5101123;28;20173;-43
2021/03/23 01:19:54;;;;;;;7.43;6.53;;;;;;;;;;5111719;28;20614;-43
2021/03/23 01:22:19;;;;;;;7.97;6.57;;;;;;;;;;5108840;28;20166;-43
2021/03/23 01:24:44;;;;;;;7.30;6.00;;;;;;;;;;5111928;28;20700;-42
2021/03/23 01:27:09;;;;;;;9.17;6.30;;;;;;;;;;5111914;28;20324;-43
2021/03/23 01:29:35;;;;;;;9.27;6.77;;;;;;;;;;5110420;28;20432;-43
2021/03/23 01:32:00;;;;;;;8.20;6.30;;;;;;;;;;5110164;28;20173;-43
2021/03/23 01:34:25;;;;;;;7.60;6.70;;;;;;;;;;5108743;28;20185;-43
2021/03/23 01:36:50;;;;;;;12.73;7.10;;;;;;;;;;5110148;28;20598;-43
2021/03/23 01:39:16;;;;;;;6.97;5.23;;;;;;;;;;5111933;28;20170;-43
2021/03/23 01:41:41;;;;;;;8.97;6.20;;;;;;;;;;5110095;28;20681;-42
2021/03/23 01:44:06;;;;;;;7.77;6.13;;;;;;;;;;5111897;28;20206;-43
2021/03/23 01:46:34;;;;;;;7.05;5.63;;;;;;;;;;5111097;28;20185;-42
2021/03/23 01:49:00;;;;;;;8.57;5.60;;;;;;;;;;5112268;27;20201;-43
2021/03/23 01:51:25;;;;;;;9.13;6.00;;;;;;;;;;5110696;28;20681;-42
2021/03/23 01:53:53;;;;;;;8.67;6.60;;;;;;;;;;5110940;28;20257;-41
2021/03/23 01:56:19;;;;;;;7.90;6.10;;;;;;;;;;5109859;28;20223;-43
2021/03/23 01:58:45;;;;;;;7.83;6.53;;;;;;;;;;5112248;28;20681;-42
2021/03/23 02:01:13;;;;;;;8.90;5.40;;;;;;;;;;5110818;28;20182;-42
2021/03/23 02:03:38;;;;;;;11.83;5.63;;;;;;;;;;5106483;28;20684;-42
2021/03/23 02:06:04;;;;;;;10.07;6.37;;;;;;;;;;5106485;28;20605;-42
2021/03/23 02:08:30;;;;;;;9.53;6.13;;;;;;;;;;5110795;28;20214;-42
2021/03/23 02:10:56;;;;;;;7.83;5.83;;;;;;;;;;5110379;28;20678;-43
2021/03/23 02:13:22;;;;;;;8.47;6.10;;;;;;;;;;5110843;28;20265;-43
2021/03/23 02:15:47;;;;;;;9.10;6.80;;;;;;;;;;5109695;28;20698;-43
2021/03/23 02:18:18;;;;;;;9.67;7.13;;;;;;;;;;5092518;28;20551;-43
2021/03/23 02:20:57;;;;;;;9.73;6.20;;;;;;;;;;5111785;28;20266;-43
2021/03/23 02:23:24;;;;;;;9.67;6.33;;;;;;;;;;5111112;28;20591;-43
2021/03/23 02:25:49;;;;;;;8.87;5.97;;;;;;;;;;5109890;28;20602;-42
2021/03/23 02:28:14;;;;;;;8.48;6.55;;;;;;;;;;5113628;27;20674;-43
2021/03/23 02:30:41;;;;;;;8.07;6.20;;;;;;;;;;5111234;28;20226;-43
2021/03/23 02:33:06;;;;;;;9.00;6.40;;;;;;;;;;5109610;28;20225;-43
2021/03/23 02:35:32;;;;;;;12.13;6.70;;;;;;;;;;5109216;28;20620;-43
2021/03/23 02:37:58;;;;;;;6.70;6.00;;;;;;;;;;5110167;28;20166;-43
2021/03/23 02:40:23;;;;;;;8.73;7.13;;;;;;;;;;5111180;28;20196;-43
2021/03/23 02:42:48;;;;;;;9.63;7.20;;;;;;;;;;5110240;28;20258;-43
2021/03/23 02:45:13;;;;;;;9.27;6.60;;;;;;;;;;5110132;28;20176;-43
2021/03/23 02:47:38;;;;;;;10.63;7.37;;;;;;;;;;5110349;28;20226;-43
2021/03/23 02:50:05;;;;;;;9.33;6.50;;;;;;;;;;5107852;28;20241;-43
2021/03/23 02:52:30;;;;;;;8.87;7.07;;;;;;;;;;5110104;28;20272;-43
2021/03/23 02:54:55;;;;;;;8.20;6.47;;;;;;;;;;5111123;28;21149;-43
2021/03/23 02:57:20;;;;;;;9.70;6.83;;;;;;;;;;5109302;28;20165;-43
2021/03/23 02:59:45;;;;;;;9.82;6.65;;;;;;;;;;5111062;28;20264;-42
2021/03/23 03:02:10;;;;;;;9.60;7.72;;;;;;;;;;5110077;28;20172;-41
2021/03/23 03:04:38;;;;;;;6.75;6.15;;;;;;;;;;5106295;28;20174;-41
2021/03/23 03:07:03;;;;;;;10.93;7.37;;;;;;;;;;5109053;28;20220;-42
2021/03/23 03:09:29;;;;;;;7.47;6.17;;;;;;;;;;5110401;28;20598;-41
2021/03/23 03:11:54;;;;;;;7.33;6.13;;;;;;;;;;5109038;28;20935;-42
2021/03/23 03:14:19;;;;;;;7.93;5.63;;;;;;;;;;5110220;28;20188;-42
2021/03/23 03:16:45;;;;;;;6.27;5.57;;;;;;;;;;5109885;28;20659;-42
2021/03/23 03:19:10;;;;;;;6.67;5.67;;;;;;;;;;5111122;27;20175;-41
2021/03/23 03:21:35;;;;;;;7.83;5.43;;;;;;;;;;5106294;27;20185;-42
2021/03/23 03:24:01;;;;;;;7.10;5.75;;;;;;;;;;5109750;28;20170;-41
2021/03/23 03:26:26;;;;;;;6.43;5.60;;;;;;;;;;5109072;28;20311;-42
2021/03/23 03:28:52;;;;;;;6.00;5.33;;;;;;;;;;5110044;28;20529;-41
2021/03/23 03:31:18;;;;;;;6.40;5.60;;;;;;;;;;5109673;28;20204;-43
2021/03/23 03:33:43;;;;;;;6.23;4.80;;;;;;;;;;5108979;28;21162;-44
2021/03/23 03:36:08;;;;;;;7.45;4.85;;;;;;;;;;5106331;28;20598;-40
2021/03/23 03:38:33;;;;;;;9.40;6.07;;;;;;;;;;5108282;28;20691;-43
2021/03/23 03:40:58;;;;;;;5.85;4.85;;;;;;;;;;5108900;28;20221;-41
2021/03/23 03:43:25;;;;;;;6.47;5.13;;;;;;;;;;5109407;28;20542;-41
2021/03/23 03:45:51;;;;;;;5.20;4.70;;;;;;;;;;5109737;28;20222;-42
2021/03/23 03:48:16;;;;;;;6.17;4.30;;;;;;;;;;5110878;27;20612;-42
2021/03/23 03:50:42;;;;;;;4.90;4.40;;;;;;;;;;5109388;28;20203;-41
2021/03/23 03:53:07;;;;;;;8.57;4.60;;;;;;;;;;5108946;28;20182;-42
2021/03/23 03:55:34;;;;;;;7.17;4.87;;;;;;;;;;5108918;28;20221;-42
2021/03/23 03:57:59;;;;;;;6.83;4.87;;;;;;;;;;5108643;28;20656;-42
2021/03/23 04:00:29;;;;;;;6.73;4.80;;;;;;;;;;5109440;27;20650;-42
2021/03/23 04:02:54;;;;;;;7.33;5.40;;;;;;;;;;5109391;28;20165;-42
2021/03/23 04:05:27;;;;;;;8.80;4.97;;;;;;;;;;5109479;28;20624;-43
2021/03/23 04:07:53;;;;;;;5.90;5.00;;;;;;;;;;5108084;28;20637;-42
2021/03/23 04:10:19;;;;;;;6.13;4.67;;;;;;;;;;5108768;28;20643;-42
2021/03/23 04:12:44;;;;;;;8.87;4.97;;;;;;;;;;5108339;28;20259;-43
2021/03/23 04:15:10;;;;;;;5.73;4.43;;;;;;;;;;5109249;28;20682;-42
2021/03/23 04:17:35;;;;;;;7.40;4.80;;;;;;;;;;5107873;28;20246;-42
2021/03/23 04:20:01;;;;;;;5.43;4.40;;;;;;;;;;5109099;27;20609;-43
2021/03/23 04:22:26;;;;;;;5.10;4.63;;;;;;;;;;5108316;28;20173;-42
2021/03/23 04:24:51;;;;;;;5.00;4.38;;;;;;;;;;5108709;28;20177;-43
2021/03/23 04:27:16;;;;;;;6.43;4.60;;;;;;;;;;5107751;28;20177;-42
2021/03/23 04:29:41;;;;;;;4.93;4.10;;;;;;;;;;5107475;28;20172;-43
2021/03/23 04:32:06;;;;;;;6.07;4.88;;;;;;;;;;5105364;28;20169;-42
2021/03/23 04:34:32;;;;;;;6.63;4.53;;;;;;;;;;5102708;28;20179;-42
2021/03/23 04:36:57;;;;;;;9.03;5.17;;;;;;;;;;5104570;28;20174;-42
2021/03/23 04:39:22;;;;;;;5.25;4.70;;;;;;;;;;5103627;28;20175;-43
2021/03/23 04:41:47;;;;;;;6.17;5.57;;;;;;;;;;5103960;28;20190;-42
2021/03/23 04:44:12;;;;;;;5.40;4.90;;;;;;;;;;5104588;28;21397;-41
2021/03/23 04:46:38;;;;;;;8.90;5.50;;;;;;;;;;5104654;28;20894;-41
2021/03/23 04:49:03;;;;;;;7.50;5.43;;;;;;;;;;5101571;28;20174;-42
2021/03/23 04:51:29;;;;;;;7.53;5.90;;;;;;;;;;5105017;28;20282;-43
2021/03/23 04:53:58;;;;;;;6.60;5.53;;;;;;;;;;5105093;28;20251;-42
2021/03/23 04:56:25;;;;;;;7.87;6.10;;;;;;;;;;5101830;28;20655;-42
2021/03/23 04:58:51;;;;;;;7.43;5.80;;;;;;;;;;5099339;28;20611;-42
2021/03/23 05:01:16;;;;;;;6.80;5.90;;;;;;;;;;5102714;28;21149;-42
2021/03/23 05:03:41;;;;;;;8.60;6.00;;;;;;;;;;5097830;28;20175;-42
2021/03/23 05:06:08;;;;;;;11.53;5.90;;;;;;;;;;5102319;28;20547;-42
2021/03/23 05:08:35;;;;;;;9.67;5.73;;;;;;;;;;5105146;28;20270;-42
2021/03/23 05:11:00;;;;;;;7.33;5.77;;;;;;;;;;5105845;28;20647;-45
2021/03/23 05:13:26;;;;;;;7.37;6.40;;;;;;;;;;5104342;28;20699;-43
2021/03/23 05:15:51;;;;;;;6.07;5.47;;;;;;;;;;5108545;28;20672;-42
2021/03/23 05:18:16;;;;;;;8.33;5.43;;;;;;;;;;5104868;28;20188;-42
2021/03/23 05:20:42;;;;;;;11.70;5.45;;;;;;;;;;5106984;28;20173;-42
2021/03/23 05:23:08;;;;;;;7.30;5.90;;;;;;;;;;5107862;28;20174;-43
2021/03/23 05:25:33;;;;;;;7.60;5.73;;;;;;;;;;5104840;28;20611;-43
2021/03/23 05:27:58;;;;;;;9.85;5.85;;;;;;;;;;5106528;28;20180;-41
2021/03/23 05:30:23;;;;;;;6.37;5.80;;;;;;;;;;5106296;28;20202;-41
2021/03/23 05:32:49;;;;;;;6.80;6.13;;;;;;;;;;5105197;28;20265;-41
2021/03/23 05:35:14;;;;;;;7.17;6.30;;;;;;;;;;5098353;28;20190;-41
2021/03/23 05:37:39;;;;;;;6.10;5.50;;;;;;;;;;5100299;28;20181;-40
2021/03/23 05:40:05;;;;;;;9.10;5.80;;;;;;;;;;5102406;28;20754;-41
2021/03/23 05:42:35;;;;;;;6.83;6.00;;;;;;;;;;5103547;28;20261;-41
2021/03/23 05:45:19;;;;;;;7.23;6.10;;;;;;;;;;5104326;28;20625;-41
2021/03/23 05:48:02;;;;;;;8.30;6.27;;;;;;;;;;5102359;28;20619;-41
2021/03/23 05:50:32;;;;;;;8.77;6.40;;;;;;;;;;5096653;28;20631;-41
2021/03/23 05:53:14;;;;;;;6.50;5.80;;;;;;;;;;5089187;28;20648;-41
2021/03/23 05:55:42;;;;;;;7.63;5.40;;;;;;;;;;5098169;28;20720;-42
2021/03/23 05:58:27;;;;;;;8.27;5.87;;;;;;;;;;5106988;28;20610;-42
2021/03/23 06:01:17;;;;;;;8.40;5.93;;;;;;;;;;5100897;28;20692;-42
2021/03/23 06:03:48;;;;;;;6.30;5.70;;;;;;;;;;5101308;28;20590;-41
2021/03/23 06:06:15;;;;;;;9.83;6.43;;;;;;;;;;5102802;27;20619;-42
2021/03/23 06:08:41;;;;;;;7.43;6.30;;;;;;;;;;5107010;27;20834;-42
2021/03/23 06:11:06;;;;;;;7.43;6.20;;;;;;;;;;5106927;28;20742;-42
2021/03/23 06:13:44;;;;;;;8.03;7.23;;;;;;;;;;5099965;28;20190;-42
2021/03/23 06:16:12;;;;;;;6.50;5.70;;;;;;;;;;5106842;28;20288;-42
2021/03/23 06:18:51;;;;;;;7.10;6.40;;;;;;;;;;5101441;28;20631;-42
2021/03/23 06:21:23;;;;;;;9.40;7.40;;;;;;;;;;5108101;28;20606;-42
2021/03/23 06:23:58;;;;;;;7.33;6.30;;;;;;;;;;5107857;28;21184;-42
2021/03/23 06:26:32;;;;;;;9.60;6.67;;;;;;;;;;5116736;27;20611;-42
2021/03/23 06:29:04;;;;;;;9.67;6.43;;;;;;;;;;5103765;28;20590;-42
2021/03/23 06:31:45;;;;;;;6.73;6.13;;;;;;;;;;5109844;28;20647;-42
2021/03/23 06:34:20;;;;;;;6.57;5.87;;;;;;;;;;5104840;28;21121;-42
2021/03/23 06:36:45;;;;;;;9.33;6.87;;;;;;;;;;5109424;28;20591;-42
2021/03/23 06:39:11;;;;;;;6.50;5.90;;;;;;;;;;5109921;28;20970;-42
2021/03/23 06:41:50;;;;;;;8.13;6.40;;;;;;;;;;5109767;28;20190;-43
2021/03/23 06:44:15;;;;;;;7.60;6.80;;;;;;;;;;5104993;28;20185;-42
2021/03/23 06:46:42;;;;;;;9.93;7.65;;;;;;;;;;5109118;28;20592;-43
2021/03/23 06:49:13;;;;;;;6.40;5.80;;;;;;;;;;5109876;28;20206;-42
2021/03/23 06:52:01;;;;;;;9.67;6.33;;;;;;;;;;5109559;27;20641;-43
2021/03/23 06:54:30;;;;;;;8.90;7.10;;;;;;;;;;5102455;27;20639;-42
2021/03/23 06:57:11;;;;;;;8.17;7.00;;;;;;;;;;5101372;27;20613;-42
2021/03/23 06:59:47;;;;;;;6.77;6.17;;;;;;;;;;5107518;27;20594;-42
2021/03/23 07:02:31;;;;;;;6.97;6.27;;;;;;;;;;5108567;27;20611;-42
2021/03/23 07:04:56;;;;;;;8.77;6.30;;;;;;;;;;5113826;27;20650;-43
2021/03/23 07:07:22;;;;;;;8.30;6.60;;;;;;;;;;5106811;27;20587;-42
2021/03/23 07:09:50;;;;;;;8.83;5.90;;;;;;;;;;5102548;27;20174;-42
2021/03/23 07:12:16;;;;;;;8.17;6.33;;;;;;;;;;5106191;27;20210;-42
2021/03/23 07:14:42;;;;;;;6.53;5.93;;;;;;;;;;5107275;27;20627;-42
2021/03/23 07:17:15;;;;;;;6.10;5.60;;;;;;;;;;5106454;27;20707;-42
2021/03/23 07:19:59;;;;;;;8.50;5.50;;;;;;;;;;5105368;28;20592;-43
2021/03/23 07:22:32;;;;;;;6.83;5.80;;;;;;;;;;5100696;28;20705;-43
2021/03/23 07:24:58;;;;;;;5.83;5.33;;;;;;;;;;5105347;28;20621;-42
2021/03/23 07:27:25;;;;;;;6.40;5.77;;;;;;;;;;5101813;28;20645;-42
2021/03/23 07:29:50;;;;;;;6.17;5.47;;;;;;;;;;5106668;28;20182;-42
2021/03/23 07:32:30;;;;;;;6.57;5.95;;;;;;;;;;5084742;28;20592;-43
2021/03/23 07:35:01;;;;;;;6.90;6.20;;;;;;;;;;5106074;28;20176;-42
2021/03/23 07:37:41;;;;;;;8.43;6.40;;;;;;;;;;5105491;28;20592;-42
2021/03/23 07:40:25;;;;;;;6.87;6.00;;;;;;;;;;5104323;28;20666;-43
2021/03/23 07:43:04;;;;;;;5.90;5.30;;;;;;;;;;5105390;28;20700;-43
2021/03/23 07:45:34;;;;;;;6.20;5.50;;;;;;;;;;5103434;28;20614;-42
2021/03/23 07:48:09;;;;;;;5.17;4.77;;;;;;;;;;5105816;28;20593;-43
2021/03/23 07:50:36;;;;;;;5.33;4.83;;;;;;;;;;5105979;28;20656;-43
2021/03/23 07:53:07;;;;;;;5.13;4.73;;;;;;;;;;5106203;28;20603;-43
2021/03/23 07:55:32;;;;;;;5.17;4.57;;;;;;;;;;5106245;28;20648;-42
2021/03/23 07:58:16;;;;;;;5.40;4.90;;;;;;;;;;5109409;28;20614;-42
2021/03/23 08:00:44;;;;;;;5.87;5.27;;;;;;;;;;5109343;28;20177;-43
2021/03/23 08:03:24;;;;;;;4.30;3.90;;;;;;;;;;5109482;28;20598;-42
2021/03/23 08:05:55;;;;;;;4.43;4.03;;;;;;;;;;5109268;28;20584;-42
2021/03/23 08:08:39;;;;;;;5.30;4.80;;;;;;;;;;5109511;28;20931;-43
2021/03/23 08:11:13;;;;;;;5.73;5.23;;;;;;;;;;5109362;28;21046;-43
2021/03/23 08:13:56;;;;;;;8.43;5.30;;;;;;;;;;5108844;28;20609;-43
2021/03/23 08:16:27;;;;;;;5.00;4.50;;;;;;;;;;5109186;28;20697;-43
2021/03/23 08:19:16;;;;;;;4.63;4.23;;;;;;;;;;5109574;28;20568;-42
2021/03/23 08:22:00;;;;;;;4.80;4.40;;;;;;;;;;5108839;28;20610;-43
2021/03/23 08:24:30;;;;;;;6.83;5.30;;;;;;;;;;5109181;28;20615;-43
2021/03/23 08:27:01;;;;;;;6.43;5.80;;;;;;;;;;5109260;28;20573;-42
2021/03/23 08:29:29;;;;;;;5.80;4.90;;;;;;;;;;5109199;28;21213;-42
2021/03/23 08:32:17;;;;;;;5.07;4.67;;;;;;;;;;5109044;28;20649;-42
2021/03/23 08:34:49;;;;;;;5.47;4.97;;;;;;;;;;5097863;28;20598;-42
2021/03/23 08:37:35;;;;;;;4.97;4.57;;;;;;;;;;5107575;28;20591;-42
2021/03/23 08:40:12;;;;;;;4.83;4.43;;;;;;;;;;5108348;28;20698;-42
2021/03/23 08:42:38;;;;;;;3.97;3.67;;;;;;;;;;5109098;28;20942;-42
2021/03/23 08:45:14;;;;;;;5.50;4.43;;;;;;;;;;5109198;28;20568;-42
2021/03/23 08:47:43;;;;;;;4.80;4.40;;;;;;;;;;5108180;28;20703;-42
2021/03/23 08:50:14;;;;;;;4.07;3.77;;;;;;;;;;5108830;28;20719;-43
2021/03/23 08:52:41;;;;;;;4.33;3.93;;;;;;;;;;5108699;28;20587;-42
2021/03/23 08:55:26;;;;;;;4.17;3.87;;;;;;;;;;5108364;28;21234;-42
2021/03/23 08:57:55;;;;;;;4.20;3.90;;;;;;;;;;5107894;28;20596;-42
2021/03/23 09:00:35;;;;;;;4.60;4.23;;;;;;;;;;5108864;28;20575;-42
2021/03/23 09:03:12;;;;;;;4.63;4.23;;;;;;;;;;5108843;28;20670;-42
2021/03/23 09:05:43;;;;;;;4.00;3.70;;;;;;;;;;5108108;28;20684;-43
2021/03/23 09:08:19;;;;;;;4.20;3.70;;;;;;;;;;5108344;28;20634;-43
2021/03/23 09:10:53;;;;;;;4.13;3.80;;;;;;;;;;5108220;28;20637;-42
2021/03/23 09:13:22;;;;;;;5.03;4.30;;;;;;;;;;5108756;28;20581;-42
2021/03/23 09:15:52;;;;;;;3.90;3.57;;;;;;;;;;5108589;28;21201;-42
2021/03/23 09:18:17;;;;;;;4.37;3.60;;;;;;;;;;5108473;28;20573;-41
2021/03/23 09:20:42;;;;;;;3.78;3.47;;;;;;;;;;5108536;28;20947;-41
2021/03/23 09:23:23;;;;;;;4.53;3.70;;;;;;;;;;5107704;28;20170;-42
2021/03/23 09:25:51;;;;;;;2.73;2.57;;;;;;;;;;5109520;28;20204;-43
2021/03/23 09:28:28;;;;;;;2.80;2.60;;;;;;;;;;5112636;28;20582;-42
2021/03/23 09:30:55;;;;;;;2.77;2.57;;;;;;;;;;5112403;28;20635;-41
2021/03/23 09:33:23;;;;;;;2.80;2.60;;;;;;;;;;5112321;28;20635;-41
2021/03/23 09:36:03;;;;;;;3.47;3.07;;;;;;;;;;5111900;28;20656;-42
2021/03/23 09:38:48;;;;;;;4.37;3.50;;;;;;;;;;5112053;28;20573;-42
2021/03/23 09:41:19;;;;;;;4.60;3.07;;;;;;;;;;5112178;28;20629;-42
2021/03/23 09:43:44;;;;;;;3.53;3.27;;;;;;;;;;5112033;28;20579;-42
2021/03/23 09:46:33;;;;;;;2.80;2.60;;;;;;;;;;5093585;28;20654;-42
2021/03/23 09:49:14;;;;;;;3.03;2.83;;;;;;;;;;5101324;28;20184;-42
2021/03/23 09:51:45;;;;;;;3.80;3.43;;;;;;;;;;5112019;28;21259;-42
2021/03/23 09:54:16;;;;;;;3.00;2.80;;;;;;;;;;5111361;28;20996;-42
2021/03/23 09:56:44;;;;;;;3.40;3.10;;;;;;;;;;5112065;28;20625;-42
2021/03/23 09:59:11;;;;;;;3.10;2.90;;;;;;;;;;5112164;28;20588;-42
2021/03/23 10:01:49;;;;;;;3.20;2.90;;;;;;;;;;5093677;28;20629;-43
2021/03/23 10:04:23;;;;;;;2.20;2.10;;;;;;;;;;5111977;28;20595;-43
2021/03/23 10:06:49;;;;;;;2.83;2.63;;;;;;;;;;5110664;28;20704;-43
2021/03/23 10:09:21;;;;;;;3.20;2.80;;;;;;;;;;5111403;28;20693;-43
2021/03/23 10:11:47;;;;;;;2.40;2.20;;;;;;;;;;5111460;28;20272;-43
2021/03/23 10:14:21;;;;;;;3.90;2.60;;;;;;;;;;5111746;28;20579;-43
2021/03/23 10:16:46;;;;;;;2.30;2.10;;;;;;;;;;5110818;28;20184;-43
2021/03/23 10:19:22;;;;;;;2.77;2.67;;;;;;;;;;5111317;28;21162;-43
2021/03/23 10:21:49;;;;;;;2.83;2.60;;;;;;;;;;5111380;28;20550;-43
2021/03/23 10:24:15;;;;;;;2.70;2.53;;;;;;;;;;5111313;28;20587;-43
2021/03/23 10:26:43;;;;;;;2.90;2.60;;;;;;;;;;5111160;28;20580;-43
2021/03/23 10:29:10;;;;;;;3.67;2.90;;;;;;;;;;5111152;28;20602;-42
2021/03/23 10:31:37;;;;;;;3.30;2.77;;;;;;;;;;5111027;28;20688;-42
2021/03/23 10:34:23;;;;;;;2.80;2.60;;;;;;;;;;5111231;28;20642;-43
2021/03/23 10:36:50;;;;;;;2.87;2.67;;;;;;;;;;5108915;28;21062;-41
2021/03/23 10:39:25;;;;;;;3.47;3.17;;;;;;;;;;5111283;28;20589;-42
2021/03/23 10:41:50;;;;;;;3.70;3.40;;;;;;;;;;5110971;28;20653;-42
2021/03/23 10:44:21;;;;;;;3.03;2.80;;;;;;;;;;5111016;28;20595;-42
2021/03/23 10:46:47;;;;;;;3.17;2.97;;;;;;;;;;5109983;28;20182;-43
2021/03/23 10:49:29;;;;;;;2.90;2.77;;;;;;;;;;5110992;28;20698;-42
2021/03/23 10:51:56;;;;;;;3.93;3.13;;;;;;;;;;5110850;28;20632;-42
2021/03/23 10:54:26;;;;;;;3.27;2.97;;;;;;;;;;5110513;28;20704;-42
2021/03/23 10:56:56;;;;;;;3.07;2.87;;;;;;;;;;5110544;28;20652;-42
2021/03/23 10:59:29;;;;;;;3.27;2.60;;;;;;;;;;5111027;28;21129;-42
2021/03/23 11:02:05;;;;;;;3.63;3.23;;;;;;;;;;5110877;28;20692;-42
2021/03/23 11:04:32;;;;;;;3.53;3.23;;;;;;;;;;5110460;28;20601;-42
2021/03/23 11:07:16;;;;;;;5.90;3.10;;;;;;;;;;5110222;28;20608;-41
2021/03/23 11:09:42;;;;;;;3.03;2.83;;;;;;;;;;5110521;28;21199;-43
2021/03/23 11:12:07;;;;;;;3.00;2.80;;;;;;;;;;5110853;28;20645;-42
2021/03/23 11:14:32;;;;;;;3.60;2.93;;;;;;;;;;5110457;28;20723;-42
2021/03/23 11:17:00;;;;;;;3.97;3.60;;;;;;;;;;5110381;28;20470;-43
2021/03/23 11:19:32;;;;;;;3.00;2.80;;;;;;;;;;5110591;28;20568;-43
2021/03/23 11:22:03;;;;;;;3.03;2.83;;;;;;;;;;5110678;28;21149;-41
2021/03/23 11:24:29;;;;;;;2.50;2.40;;;;;;;;;;5091585;28;20594;-43
2021/03/23 11:26:54;;;;;;;2.77;2.57;;;;;;;;;;5109929;28;20588;-43
2021/03/23 11:29:20;;;;;;;2.80;2.60;;;;;;;;;;5110406;28;20171;-42
2021/03/23 11:31:45;;;;;;;3.43;3.13;;;;;;;;;;5110080;28;20558;-43
2021/03/23 11:34:10;;;;;;;3.30;3.10;;;;;;;;;;5110167;28;20163;-42
2021/03/23 11:36:36;;;;;;;3.57;3.27;;;;;;;;;;5109268;28;20327;-44
2021/03/23 11:39:01;;;;;;;2.30;2.20;;;;;;;;;;5110220;28;20184;-42
2021/03/23 11:41:29;;;;;;;3.47;2.70;;;;;;;;;;5089482;28;20355;-42
2021/03/23 11:44:00;;;;;;;2.80;2.60;;;;;;;;;;5089741;28;21113;-41
2021/03/23 11:46:33;;;;;;;3.30;3.00;;;;;;;;;;5102231;28;20981;-40
2021/03/23 11:49:07;;;;;;;3.10;2.90;;;;;;;;;;5108987;28;20586;-42
2021/03/23 11:51:33;;;;;;;4.80;3.20;;;;;;;;;;5109749;28;20620;-41
2021/03/23 11:53:59;;;;;;;3.07;2.77;;;;;;;;;;5109885;28;20580;-41
2021/03/23 11:56:24;;;;;;;3.10;2.90;;;;;;;;;;5109195;28;20635;-41
2021/03/23 11:58:49;;;;;;;3.27;2.97;;;;;;;;;;5109526;28;20256;-42
2021/03/23 12:01:15;;;;;;;4.50;2.77;;;;;;;;;;5091128;28;20192;-42
2021/03/23 12:03:40;;;;;;;3.23;2.90;;;;;;;;;;5109617;28;20175;-42
2021/03/23 12:06:07;;;;;;;8.33;2.93;;;;;;;;;;5109148;28;20178;-42
2021/03/23 12:08:38;;;;;;;3.13;2.90;;;;;;;;;;5109301;28;20179;-42
2021/03/23 12:11:22;;;;;;;2.80;2.60;;;;;;;;;;5109235;28;21004;-42
2021/03/23 12:14:13;;;;;;;3.43;3.13;;;;;;;;;;5108826;28;20611;-42
2021/03/23 12:16:52;;;;;;;2.80;2.50;;;;;;;;;;5109589;28;20574;-42
2021/03/23 12:19:18;;;;;;;2.50;2.40;;;;;;;;;;5109390;28;21023;-42
2021/03/23 12:21:45;;;;;;;2.70;2.50;;;;;;;;;;5109503;28;20579;-42
2021/03/23 12:24:10;;;;;;;2.47;2.27;;;;;;;;;;5108518;28;21245;-41
2021/03/23 12:26:36;;;;;;;2.80;2.60;;;;;;;;;;5109031;28;20592;-42
2021/03/23 12:29:01;;;;;;;3.03;2.40;;;;;;;;;;5108790;28;20166;-42
2021/03/23 12:31:26;;;;;;;3.00;2.80;;;;;;;;;;5109180;28;20212;-42
2021/03/23 12:33:52;;;;;;;2.87;2.67;;;;;;;;;;5108661;28;20188;-42
2021/03/23 12:36:18;;;;;;;3.43;3.13;;;;;;;;;;5109032;28;20267;-42
2021/03/23 12:38:45;;;;;;;3.40;3.10;;;;;;;;;;5108801;28;20676;-42
2021/03/23 12:41:18;;;;;;;2.80;2.60;;;;;;;;;;5108914;28;20211;-44
2021/03/23 12:43:48;;;;;;;3.57;3.27;;;;;;;;;;5108209;28;20593;-42
2021/03/23 12:46:13;;;;;;;3.10;2.77;;;;;;;;;;5108165;28;20617;-42
2021/03/23 12:48:38;;;;;;;3.03;2.60;;;;;;;;;;5108442;28;20602;-43
2021/03/23 12:51:04;;;;;;;3.15;2.60;;;;;;;;;;5108915;28;20199;-42
2021/03/23 12:53:29;;;;;;;3.87;2.67;;;;;;;;;;5108335;28;20568;-42
2021/03/23 12:55:55;;;;;;;3.70;2.60;;;;;;;;;;5108593;28;20224;-43
2021/03/23 12:58:22;;;;;;;2.93;2.67;;;;;;;;;;5108365;28;20231;-42
2021/03/23 13:00:47;;;;;;;2.67;2.47;;;;;;;;;;5108115;28;20230;-42
2021/03/23 13:03:14;;;;;;;2.87;2.67;;;;;;;;;;5108681;28;20578;-43
2021/03/23 13:05:39;;;;;;;3.10;2.90;;;;;;;;;;5108624;28;20715;-43
2021/03/23 13:08:10;;;;;;;2.50;2.40;;;;;;;;;;5108204;28;20582;-43
2021/03/23 13:10:41;;;;;;;2.23;2.13;;;;;;;;;;5107832;28;20201;-41
2021/03/23 13:13:18;;;;;;;3.53;2.90;;;;;;;;;;5108732;28;20582;-41
2021/03/23 13:15:44;;;;;;;3.70;3.40;;;;;;;;;;5108602;28;20646;-41
2021/03/23 13:18:10;;;;;;;6.10;3.53;;;;;;;;;;5108290;28;21206;-41
2021/03/23 13:20:35;;;;;;;3.63;3.33;;;;;;;;;;5107701;28;20180;-41
2021/03/23 13:23:02;;;;;;;4.20;3.90;;;;;;;;;;5108645;28;20587;-42
2021/03/23 13:25:28;;;;;;;4.37;3.97;;;;;;;;;;5108235;28;20178;-42
2021/03/23 13:27:53;;;;;;;4.40;4.10;;;;;;;;;;5107841;28;20992;-42
2021/03/23 13:30:25;;;;;;;3.93;3.50;;;;;;;;;;5108216;28;20694;-41
2021/03/23 13:32:51;;;;;;;4.70;4.30;;;;;;;;;;5108208;28;20193;-42
2021/03/23 13:35:16;;;;;;;4.37;3.40;;;;;;;;;;5108311;28;21127;-42
2021/03/23 13:37:42;;;;;;;4.50;4.10;;;;;;;;;;5108078;28;21141;-42
2021/03/23 13:40:14;;;;;;;4.60;4.20;;;;;;;;;;5108282;28;20192;-41
2021/03/23 13:42:40;;;;;;;3.97;3.57;;;;;;;;;;5108398;28;20168;-42
2021/03/23 13:45:05;;;;;;;4.17;3.87;;;;;;;;;;5108153;28;20555;-41
2021/03/23 13:47:30;;;;;;;4.90;4.50;;;;;;;;;;5108164;28;20203;-42
2021/03/23 13:49:56;;;;;;;5.37;4.77;;;;;;;;;;5107813;28;20172;-43
2021/03/23 13:52:24;;;;;;;5.27;4.20;;;;;;;;;;5107735;28;20199;-41
2021/03/23 13:54:49;;;;;;;5.57;4.37;;;;;;;;;;5107425;28;20683;-43
2021/03/23 13:57:15;;;;;;;6.70;4.47;;;;;;;;;;5108041;28;20830;-41
2021/03/23 13:59:40;;;;;;;4.80;4.40;;;;;;;;;;5108057;28;20833;-42
2021/03/23 14:02:06;;;;;;;6.10;5.47;;;;;;;;;;5107675;28;20585;-43
2021/03/23 14:04:31;;;;;;;5.40;4.80;;;;;;;;;;5107965;28;20174;-42
2021/03/23 14:06:56;;;;;;;4.80;4.40;;;;;;;;;;5108275;28;20187;-43
2021/03/23 14:09:22;;;;;;;4.90;4.50;;;;;;;;;;5107790;28;20182;-43
2021/03/23 14:11:47;;;;;;;6.32;5.72;;;;;;;;;;5107999;28;20228;-43
2021/03/23 14:14:12;;;;;;;5.30;4.80;;;;;;;;;;5111712;28;20195;-43
2021/03/23 14:16:37;;;;;;;5.57;5.07;;;;;;;;;;5111000;28;20178;-41
2021/03/23 14:19:02;;;;;;;7.25;5.63;;;;;;;;;;5111926;28;20434;-41
2021/03/23 14:21:27;;;;;;;6.20;5.60;;;;;;;;;;5111088;28;20184;-42
2021/03/23 14:23:53;;;;;;;6.37;5.77;;;;;;;;;;5111654;28;20174;-42
2021/03/23 14:26:18;;;;;;;5.83;5.20;;;;;;;;;;5111278;28;20255;-43
2021/03/23 14:28:52;;;;;;;6.40;5.80;;;;;;;;;;5111020;28;20175;-43
2021/03/23 14:31:19;;;;;;;6.30;5.70;;;;;;;;;;5110829;28;20265;-43
2021/03/23 14:33:44;;;;;;;8.17;6.00;;;;;;;;;;5111441;28;21152;-43
2021/03/23 14:36:11;;;;;;;6.87;4.83;;;;;;;;;;5098745;28;20635;-43
2021/03/23 14:38:37;;;;;;;6.73;6.13;;;;;;;;;;5107884;27;20177;-41
2021/03/23 14:41:04;;;;;;;5.93;5.33;;;;;;;;;;5110222;28;20640;-42
2021/03/23 14:43:30;;;;;;;6.23;5.60;;;;;;;;;;5111242;28;20575;-42
2021/03/23 14:45:55;;;;;;;5.27;4.87;;;;;;;;;;5110422;28;20720;-42
2021/03/23 14:48:23;;;;;;;4.17;3.77;;;;;;;;;;5108949;28;21369;-43
2021/03/23 14:50:48;;;;;;;5.60;4.40;;;;;;;;;;5111121;28;20196;-43
2021/03/23 14:53:18;;;;;;;4.90;4.50;;;;;;;;;;5111102;28;20683;-41